Terminal Aerodrome Forecast
Issued by NWS

Home | Current Version | Previous Version | Text Only | Print | Product List | Glossary Off
Versions: 1 2 3 4 5 6 7 8 9 10 11 12 13 14 15

000
FTUS45 KGGW 161100
TAFSDY
TAF
KSDY 161127Z 1612/1712 04011KT P6SM SCT020
      TEMPO 1612/1613 BKN020
     FM161300 03011KT P6SM OVC020
     FM161900 07012KT P6SM OVC050
     FM170400 11008KT P6SM BKN100
      AMD LTD TO CLD VIS AND WIND=

USA.gov is the U.S. government's official web portal to all federal, state and local government web resources and services.